Time;durP1;ratioP1;P1;durP2;ratioP2;P2;SDS_P1;SDS_P2;PMS_P1;PMS_P2;Temp;Humidity;BMP_temperature;BMP_pressure;BME280_temperature;BME280_humidity;BME280_pressure;Samples;Min_cycle;Max_cycle;Signal;HPM_P1;HPM_P2
2022/06/28 00:00:15;;;;;;;8.98;5.78;;;17.40;70.00;;;;;;5060879;28;20056;-47
2022/06/28 00:02:43;;;;;;;6.43;4.88;;;17.40;70.10;;;;;;5058806;28;20052;-49
2022/06/28 00:05:13;;;;;;;9.32;5.75;;;17.40;70.20;;;;;;5062102;28;20053;-50
2022/06/28 00:07:42;;;;;;;7.85;4.95;;;17.40;70.20;;;;;;5063969;28;20075;-48
2022/06/28 00:10:12;;;;;;;6.80;5.15;;;17.40;70.30;;;;;;5061201;28;20057;-48
2022/06/28 00:12:41;;;;;;;7.57;5.35;;;17.40;70.40;;;;;;5060322;28;20049;-48
2022/06/28 00:17:58;;;;;;;6.10;5.28;;;17.40;70.00;;;;;;5064125;28;20067;-47
2022/06/28 00:20:31;;;;;;;6.20;4.35;;;17.40;69.80;;;;;;5061339;28;20064;-49
2022/06/28 00:23:02;;;;;;;5.20;4.20;;;17.40;69.60;;;;;;5061058;28;20071;-51
2022/06/28 00:25:32;;;;;;;6.35;4.18;;;17.30;69.40;;;;;;5061141;28;20412;-47
2022/06/28 00:28:01;;;;;;;5.75;5.03;;;17.30;69.40;;;;;;5058049;28;20647;-51
2022/06/28 00:30:32;;;;;;;7.22;5.18;;;17.30;69.50;;;;;;5058673;28;20450;-47
2022/06/28 00:33:01;;;;;;;6.43;4.68;;;17.30;69.20;;;;;;5061775;28;20063;-50
2022/06/28 00:35:33;;;;;;;4.38;3.97;;;17.20;69.10;;;;;;5060845;28;20045;-48
2022/06/28 00:38:01;;;;;;;6.85;4.88;;;17.20;69.00;;;;;;5062618;28;20072;-51
2022/06/28 00:40:29;;;;;;;6.32;4.93;;;17.20;69.10;;;;;;5060856;28;20049;-51
2022/06/28 00:42:59;;;;;;;7.07;5.47;;;17.20;69.20;;;;;;5061767;28;20063;-48
2022/06/28 00:45:28;;;;;;;4.60;4.18;;;17.10;69.10;;;;;;5060901;28;20059;-47
2022/06/28 00:47:57;;;;;;;6.68;5.03;;;17.10;69.20;;;;;;5061196;28;20060;-50
2022/06/28 00:50:27;;;;;;;7.35;5.15;;;17.10;69.20;;;;;;5061998;28;20500;-48
2022/06/28 00:53:09;;;;;;;6.65;5.20;;;17.10;69.10;;;;;;5063117;28;20512;-50
2022/06/28 00:55:37;;;;;;;8.00;4.80;;;17.10;69.00;;;;;;5063033;28;20056;-47
2022/06/28 00:58:06;;;;;;;5.90;4.93;;;17.10;68.90;;;;;;5061526;28;20049;-53
2022/06/28 01:00:41;;;;;;;6.07;5.00;;;17.00;68.80;;;;;;5058559;28;20054;-47
2022/06/28 01:03:11;;;;;;;5.78;5.00;;;17.00;68.80;;;;;;5060599;28;20060;-51
2022/06/28 01:05:41;;;;;;;10.73;6.45;;;17.00;68.80;;;;;;5061972;28;20059;-52
2022/06/28 01:08:11;;;;;;;7.40;5.20;;;17.00;68.60;;;;;;5059803;28;20048;-49
2022/06/28 01:10:40;;;;;;;5.95;5.35;;;16.90;68.70;;;;;;5060048;28;20440;-50
2022/06/28 01:13:09;;;;;;;6.88;5.90;;;16.90;68.90;;;;;;5060192;28;20400;-46
2022/06/28 01:15:42;;;;;;;8.10;5.47;;;16.90;68.90;;;;;;5059326;28;20055;-52
2022/06/28 01:18:12;;;;;;;9.35;5.88;;;16.90;69.00;;;;;;5060579;28;20055;-49
2022/06/28 01:20:43;;;;;;;9.00;5.95;;;16.90;69.00;;;;;;5057689;28;20053;-49
2022/06/28 01:23:16;;;;;;;6.70;5.45;;;16.90;68.80;;;;;;5058352;28;20500;-47
2022/06/28 01:25:50;;;;;;;6.82;5.38;;;16.80;68.80;;;;;;5062161;28;20690;-48
2022/06/28 01:28:19;;;;;;;;;;;16.80;68.70;;;;;;5058873;28;20501;-49
2022/06/28 01:30:50;;;;;;;14.00;5.95;;;16.80;68.50;;;;;;5057722;28;19925;-48
2022/06/28 01:33:19;;;;;;;8.32;5.82;;;16.80;68.40;;;;;;5061862;28;20056;-48
2022/06/28 01:35:48;;;;;;;7.93;5.93;;;16.80;68.60;;;;;;5061764;28;20048;-51
2022/06/28 01:38:21;;;;;;;9.57;5.38;;;16.80;68.70;;;;;;5054912;28;20416;-49
2022/06/28 01:40:49;;;;;;;10.18;6.43;;;16.70;68.60;;;;;;5054902;28;20062;-48
2022/06/28 01:43:20;;;;;;;10.40;6.53;;;16.70;68.60;;;;;;5059563;28;20496;-47
2022/06/28 01:45:50;;;;;;;5.82;4.80;;;16.70;68.50;;;;;;5059588;28;20056;-51
2022/06/28 01:48:20;;;;;;;6.40;4.63;;;16.60;68.50;;;;;;5059806;28;20048;-52
2022/06/28 01:50:49;;;;;;;5.70;4.70;;;16.60;68.70;;;;;;5056207;28;20075;-48
2022/06/28 01:53:19;;;;;;;7.63;5.32;;;16.60;68.70;;;;;;5057738;28;20049;-46
2022/06/28 01:55:47;;;;;;;7.28;5.57;;;16.60;68.60;;;;;;5060369;28;20058;-49
2022/06/28 01:58:16;;;;;;;7.72;5.78;;;16.60;68.60;;;;;;5060207;28;20052;-49
2022/06/28 02:00:44;;;;;;;8.82;5.40;;;16.60;68.40;;;;;;5053061;28;21843;-48
2022/06/28 02:03:13;;;;;;;6.05;4.63;;;16.60;68.40;;;;;;5060892;28;20411;-55
2022/06/28 02:05:41;;;;;;;10.00;5.28;;;16.50;68.30;;;;;;5061672;28;20064;-47
2022/06/28 02:08:10;;;;;;;6.32;5.07;;;16.50;68.20;;;;;;5060246;28;20060;-51
2022/06/28 02:10:40;;;;;;;8.48;5.13;;;16.50;68.30;;;;;;5056197;28;20060;-47
2022/06/28 02:13:08;;;;;;;7.72;4.70;;;16.50;68.20;;;;;;5060121;28;20057;-51
2022/06/28 02:15:40;;;;;;;5.20;4.10;;;16.40;68.30;;;;;;5058626;28;20049;-52
2022/06/28 02:18:08;;;;;;;11.15;4.38;;;16.40;68.30;;;;;;5058112;28;20067;-48
2022/06/28 02:20:36;;;;;;;6.15;4.53;;;16.40;68.30;;;;;;5056728;28;20059;-52
2022/06/28 02:23:07;;;;;;;7.07;5.10;;;16.40;68.40;;;;;;5060211;28;20397;-48
2022/06/28 02:25:35;;;;;;;6.18;4.80;;;16.40;68.40;;;;;;5061422;28;20075;-50
2022/06/28 02:28:05;;;;;;;5.95;4.47;;;16.40;68.40;;;;;;5058440;28;20060;-49
2022/06/28 02:30:33;;;;;;;5.63;4.43;;;16.30;68.20;;;;;;5055578;28;20060;-48
2022/06/28 02:33:01;;;;;;;7.57;4.80;;;16.30;68.20;;;;;;5061120;28;20055;-49
2022/06/28 02:41:03;;;;;;;6.50;4.43;;;16.30;68.40;;;;;;5029052;28;20507;-48
2022/06/28 02:43:32;;;;;;;8.85;4.70;;;16.30;68.40;;;;;;5414594;22;20054;-54
2022/06/28 02:46:00;;;;;;;7.63;4.72;;;16.30;68.40;;;;;;5055225;22;20049;-54
2022/06/28 02:48:29;;;;;;;5.57;4.55;;;16.30;68.40;;;;;;5044710;28;20053;-53
2022/06/28 02:50:57;;;;;;;4.75;4.25;;;16.20;68.30;;;;;;5046918;28;20514;-53
2022/06/28 02:53:25;;;;;;;5.25;3.97;;;16.30;68.40;;;;;;5049118;28;20057;-52
2022/06/28 02:55:56;;;;;;;4.45;3.60;;;16.20;68.40;;;;;;5046588;28;20049;-54
2022/06/28 02:58:24;;;;;;;4.28;3.80;;;16.20;68.50;;;;;;5044633;28;20067;-51
2022/06/28 03:00:53;;;;;;;11.25;4.93;;;16.20;68.70;;;;;;5043422;28;20067;-52
2022/06/28 03:03:22;;;;;;;6.30;4.55;;;16.20;68.70;;;;;;5044913;28;20515;-53
2022/06/28 03:05:50;;;;;;;6.30;3.72;;;16.20;68.80;;;;;;5045083;28;20067;-53
2022/06/28 03:08:19;;;;;;;11.02;4.07;;;16.20;68.80;;;;;;5044581;28;20045;-53
2022/06/28 03:10:47;;;;;;;4.43;3.75;;;16.20;68.90;;;;;;5045917;28;20055;-50
2022/06/28 03:13:15;;;;;;;8.75;3.85;;;16.20;68.70;;;;;;5045345;28;20164;-52
2022/06/28 03:15:43;;;;;;;4.00;3.40;;;16.20;68.70;;;;;;5044239;28;20441;-53
2022/06/28 03:18:14;;;;;;;6.70;4.07;;;16.20;68.60;;;;;;5045214;28;20420;-55
2022/06/28 03:20:42;;;;;;;5.35;4.07;;;16.20;68.50;;;;;;5044417;28;20056;-54
2022/06/28 03:23:12;;;;;;;7.45;4.03;;;16.20;68.30;;;;;;5045318;28;20053;-54
2022/06/28 03:25:40;;;;;;;4.25;3.80;;;16.10;68.00;;;;;;5045396;28;20420;-52
2022/06/28 03:28:08;;;;;;;5.22;3.92;;;16.10;68.10;;;;;;5046054;28;20502;-54
2022/06/28 03:30:39;;;;;;;4.13;3.70;;;16.10;68.20;;;;;;5045804;28;20056;-54
2022/06/28 03:33:07;;;;;;;5.03;3.50;;;16.10;68.10;;;;;;5045733;28;20508;-54
2022/06/28 03:35:41;;;;;;;5.07;3.58;;;16.10;68.10;;;;;;5045758;28;20057;-53
2022/06/28 03:38:08;;;;;;;3.73;3.33;;;16.00;68.00;;;;;;5045310;28;20048;-53
2022/06/28 03:40:37;;;;;;;3.90;3.30;;;16.10;68.10;;;;;;5046044;28;20067;-54
2022/06/28 03:43:08;;;;;;;3.92;3.35;;;16.00;68.20;;;;;;5042937;28;20056;-55
2022/06/28 03:45:36;;;;;;;6.22;3.55;;;16.00;68.10;;;;;;5043791;28;20542;-52
2022/06/28 03:48:08;;;;;;;4.28;3.85;;;16.00;68.10;;;;;;5044318;28;20083;-50
2022/06/28 03:50:38;;;;;;;3.85;3.10;;;16.00;68.10;;;;;;5042903;28;20053;-52
2022/06/28 03:53:08;;;;;;;3.33;2.85;;;16.00;68.00;;;;;;5043219;28;20052;-53
2022/06/28 03:55:38;;;;;;;5.80;2.90;;;15.90;68.20;;;;;;5047499;28;20413;-52
2022/06/28 03:58:09;;;;;;;4.38;3.22;;;16.00;68.30;;;;;;5042002;28;20048;-55
2022/06/28 04:00:40;;;;;;;4.53;3.35;;;15.90;68.40;;;;;;5042599;28;20404;-54
2022/06/28 04:03:08;;;;;;;4.10;3.35;;;15.90;68.50;;;;;;5044512;28;20531;-53
2022/06/28 04:05:38;;;;;;;4.30;3.67;;;15.90;68.50;;;;;;5044871;28;20064;-53
2022/06/28 04:08:08;;;;;;;3.83;2.88;;;15.90;68.60;;;;;;5043202;28;20103;-53
2022/06/28 04:10:36;;;;;;;5.95;3.08;;;15.90;68.60;;;;;;5043043;28;20064;-49
2022/06/28 04:13:04;;;;;;;4.05;3.33;;;15.90;68.60;;;;;;5042380;28;20053;-52
2022/06/28 04:15:33;;;;;;;3.92;3.35;;;15.90;68.70;;;;;;5042605;28;20056;-55
2022/06/28 04:18:01;;;;;;;3.30;2.75;;;15.90;68.90;;;;;;5042968;28;20056;-53
2022/06/28 04:20:29;;;;;;;3.88;2.67;;;15.90;69.00;;;;;;5043399;28;20057;-55
2022/06/28 04:22:59;;;;;;;3.72;2.58;;;15.90;69.10;;;;;;5043928;28;20059;-51
2022/06/28 04:25:27;;;;;;;6.03;3.05;;;15.90;69.20;;;;;;5042754;28;20056;-53
2022/06/28 04:27:57;;;;;;;3.22;2.92;;;16.00;69.20;;;;;;5043720;28;20056;-56
2022/06/28 04:30:25;;;;;;;3.10;2.80;;;16.00;69.30;;;;;;5007294;28;20412;-53
2022/06/28 04:32:54;;;;;;;4.25;2.70;;;16.00;69.20;;;;;;5044130;28;20049;-52
2022/06/28 04:35:22;;;;;;;2.10;1.90;;;16.00;69.20;;;;;;5043619;28;20061;-53
2022/06/28 04:37:50;;;;;;;3.30;2.60;;;16.00;69.30;;;;;;5043982;28;20052;-49
2022/06/28 04:40:19;;;;;;;5.20;3.03;;;16.00;69.30;;;;;;5042764;28;20063;-55
2022/06/28 04:42:47;;;;;;;3.03;2.63;;;16.10;69.40;;;;;;5043372;28;20052;-54
2022/06/28 04:45:20;;;;;;;3.40;3.00;;;16.10;69.40;;;;;;5041604;28;20068;-51
2022/06/28 04:47:48;;;;;;;4.78;2.88;;;16.10;69.50;;;;;;5042901;28;20052;-55
2022/06/28 04:50:16;;;;;;;3.78;3.03;;;16.20;69.50;;;;;;5041383;28;20064;-54
2022/06/28 04:52:46;;;;;;;3.80;3.13;;;16.10;69.30;;;;;;5040395;28;20412;-53
2022/06/28 04:55:14;;;;;;;3.40;2.65;;;16.20;69.20;;;;;;5042082;28;20427;-53
2022/06/28 04:57:47;;;;;;;3.20;2.47;;;16.20;69.20;;;;;;5039152;28;20079;-55
2022/06/28 05:00:16;;;;;;;2.70;2.20;;;16.20;69.20;;;;;;5040643;28;20064;-54
2022/06/28 05:02:44;;;;;;;2.35;2.15;;;16.20;69.30;;;;;;5040913;28;20057;-53
2022/06/28 05:05:13;;;;;;;2.60;2.33;;;16.20;69.30;;;;;;5043380;28;20067;-56
2022/06/28 05:07:44;;;;;;;2.83;2.40;;;16.20;69.40;;;;;;5041867;28;20060;-54
2022/06/28 05:10:12;;;;;;;2.53;2.33;;;16.30;69.50;;;;;;5041383;28;20060;-53
2022/06/28 05:12:40;;;;;;;7.15;4.57;;;16.30;69.50;;;;;;5041062;28;20049;-55
2022/06/28 05:15:11;;;;;;;4.65;3.47;;;16.30;69.60;;;;;;5041802;28;20056;-55
2022/06/28 05:17:40;;;;;;;3.45;2.13;;;16.30;69.70;;;;;;5041099;28;20124;-54
2022/06/28 05:20:11;;;;;;;2.95;2.40;;;16.40;69.80;;;;;;5041124;28;20059;-54
2022/06/28 05:22:39;;;;;;;2.22;2.03;;;16.40;69.90;;;;;;5041542;28;20056;-55
2022/06/28 05:25:08;;;;;;;2.50;2.03;;;16.40;70.10;;;;;;5042728;28;20060;-54
2022/06/28 05:27:38;;;;;;;1.95;1.70;;;16.40;70.20;;;;;;5039095;28;20083;-54
2022/06/28 05:30:12;;;;;;;2.97;2.33;;;16.40;70.40;;;;;;5040266;28;20057;-51
2022/06/28 05:32:44;;;;;;;2.42;1.85;;;16.50;70.60;;;;;;5041239;28;20053;-54
2022/06/28 05:35:14;;;;;;;2.08;1.88;;;16.50;70.70;;;;;;5042451;28;20065;-54
2022/06/28 05:37:42;;;;;;;2.95;2.15;;;16.60;70.90;;;;;;5042175;28;20052;-52
2022/06/28 05:40:11;;;;;;;2.42;1.83;;;16.60;71.00;;;;;;5041036;28;20057;-51
2022/06/28 05:42:39;;;;;;;2.50;1.83;;;16.70;71.00;;;;;;5040889;28;20056;-55
2022/06/28 05:45:08;;;;;;;2.95;2.03;;;16.70;70.90;;;;;;5036645;28;20064;-50
2022/06/28 05:47:38;;;;;;;3.70;2.72;;;16.80;71.00;;;;;;5041448;28;20071;-55
2022/06/28 05:50:07;;;;;;;2.78;2.00;;;16.90;71.20;;;;;;5041704;28;20053;-54
2022/06/28 05:52:38;;;;;;;2.05;1.88;;;16.80;71.40;;;;;;5039746;28;20052;-51
2022/06/28 05:55:06;;;;;;;2.17;1.88;;;16.90;71.40;;;;;;5040920;28;20052;-55
2022/06/28 05:57:34;;;;;;;3.42;2.35;;;17.00;71.50;;;;;;5041403;28;20049;-53
2022/06/28 06:00:02;;;;;;;3.40;2.20;;;17.00;71.50;;;;;;5041337;28;20050;-54
2022/06/28 06:02:31;;;;;;;2.80;2.05;;;17.10;71.40;;;;;;5040619;28;20067;-57
2022/06/28 06:05:02;;;;;;;4.78;2.08;;;17.20;71.30;;;;;;5041985;28;20060;-54
2022/06/28 06:07:30;;;;;;;2.40;2.00;;;17.20;71.30;;;;;;5041669;28;20056;-56
2022/06/28 06:09:58;;;;;;;2.42;2.00;;;17.30;71.50;;;;;;5040563;28;20045;-53
2022/06/28 06:12:26;;;;;;;2.45;2.20;;;17.40;71.60;;;;;;5040976;28;20053;-55
2022/06/28 06:14:53;;;;;;;2.30;2.05;;;17.40;71.60;;;;;;5042369;28;20060;-53
2022/06/28 06:17:21;;;;;;;2.95;2.08;;;17.50;71.70;;;;;;5042159;28;20056;-55
2022/06/28 06:19:48;;;;;;;3.25;2.70;;;17.50;71.70;;;;;;5040068;28;20084;-56
2022/06/28 06:22:17;;;;;;;3.20;2.30;;;17.60;71.60;;;;;;5041071;28;20061;-55
2022/06/28 06:24:45;;;;;;;4.43;2.70;;;17.70;71.40;;;;;;5041908;28;20056;-55
2022/06/28 06:27:14;;;;;;;4.60;3.28;;;17.70;71.30;;;;;;5041829;28;20065;-51
2022/06/28 06:29:42;;;;;;;4.68;3.08;;;17.70;71.30;;;;;;5037671;28;20053;-54
2022/06/28 06:32:09;;;;;;;3.38;2.90;;;17.80;71.30;;;;;;5041594;28;20056;-54
2022/06/28 06:34:37;;;;;;;3.70;2.85;;;17.90;71.40;;;;;;5042032;28;20373;-57
2022/06/28 06:37:05;;;;;;;7.13;3.30;;;17.90;71.40;;;;;;5040117;28;20492;-50
2022/06/28 06:39:34;;;;;;;4.32;3.00;;;18.00;71.50;;;;;;5039541;28;20068;-57
2022/06/28 06:42:02;;;;;;;4.10;3.50;;;18.00;71.50;;;;;;5039620;28;20060;-45
2022/06/28 06:44:29;;;;;;;3.58;2.78;;;18.10;71.40;;;;;;5039440;28;20057;-51
2022/06/28 06:46:57;;;;;;;3.65;2.95;;;18.20;71.40;;;;;;5041064;28;20061;-51
2022/06/28 06:49:25;;;;;;;5.85;3.17;;;18.30;71.40;;;;;;5038909;28;20430;-45
2022/06/28 06:51:53;;;;;;;4.00;3.03;;;18.30;71.10;;;;;;5040618;28;20049;-53
2022/06/28 06:54:20;;;;;;;4.97;2.97;;;18.40;71.00;;;;;;5036973;28;20084;-48
2022/06/28 06:56:49;;;;;;;4.13;3.30;;;18.40;70.80;;;;;;5034018;28;20053;-51
2022/06/28 06:59:17;;;;;;;3.92;2.90;;;18.50;71.00;;;;;;5030952;28;20059;-47
2022/06/28 07:01:45;;;;;;;3.50;3.20;;;18.50;70.90;;;;;;5037336;28;20052;-49
2022/06/28 07:04:13;;;;;;;3.47;2.78;;;18.50;70.80;;;;;;5039398;28;20053;-54
2022/06/28 07:06:41;;;;;;;3.40;2.78;;;18.60;71.00;;;;;;5039645;28;20057;-47
2022/06/28 07:09:09;;;;;;;5.60;2.70;;;18.60;70.90;;;;;;5042427;28;20511;-52
2022/06/28 07:11:36;;;;;;;3.13;2.65;;;18.70;71.00;;;;;;5038260;28;20067;-52
2022/06/28 07:14:06;;;;;;;3.47;2.60;;;18.70;71.10;;;;;;5040147;28;20496;-51
2022/06/28 07:16:33;;;;;;;3.65;2.72;;;18.80;71.00;;;;;;5038975;28;20048;-47
2022/06/28 07:19:01;;;;;;;3.00;2.20;;;18.80;71.00;;;;;;5035505;28;20860;-49
2022/06/28 07:21:28;;;;;;;3.58;2.60;;;18.90;71.00;;;;;;5032549;28;20060;-53
2022/06/28 07:23:56;;;;;;;2.72;2.40;;;18.90;70.90;;;;;;5035502;28;20408;-52
2022/06/28 07:26:24;;;;;;;3.50;2.17;;;18.90;70.80;;;;;;5035659;28;20516;-48
2022/06/28 07:28:52;;;;;;;2.63;2.20;;;19.00;70.70;;;;;;5038146;28;20496;-53
2022/06/28 07:31:21;;;;;;;2.50;2.25;;;19.00;70.70;;;;;;5044618;28;20060;-49
2022/06/28 07:33:48;;;;;;;2.28;1.67;;;19.00;70.70;;;;;;5044623;28;20049;-54
2022/06/28 07:36:16;;;;;;;2.28;2.00;;;19.10;70.80;;;;;;5045601;28;20052;-52
2022/06/28 07:38:43;;;;;;;4.25;2.30;;;19.10;70.70;;;;;;5044589;28;20053;-49
2022/06/28 07:41:11;;;;;;;3.90;1.95;;;19.10;70.60;;;;;;5042397;28;20061;-52
2022/06/28 07:43:39;;;;;;;3.38;1.98;;;19.10;70.60;;;;;;5043342;28;20064;-51
2022/06/28 07:46:07;;;;;;;5.10;1.95;;;19.20;70.50;;;;;;5045641;28;20435;-52
2022/06/28 07:48:35;;;;;;;4.00;1.70;;;19.20;70.40;;;;;;5043322;28;20488;-53
2022/06/28 07:53:48;;;;;;;3.38;2.05;;;19.30;70.30;;;;;;5048936;28;20056;-48
2022/06/28 07:56:15;;;;;;;2.13;1.73;;;19.30;70.40;;;;;;5039111;28;20523;-46
2022/06/28 07:58:43;;;;;;;3.97;2.25;;;19.40;70.30;;;;;;5037457;28;20056;-50
2022/06/28 08:01:10;;;;;;;4.85;3.17;;;19.40;70.20;;;;;;5043564;28;20052;-49
2022/06/28 08:03:39;;;;;;;4.63;2.08;;;19.50;69.40;;;;;;5044109;28;20064;-53
2022/06/28 08:06:07;;;;;;;4.55;1.75;;;19.50;68.70;;;;;;5042586;28;20634;-49
2022/06/28 08:08:34;;;;;;;5.95;1.80;;;19.50;68.80;;;;;;5041657;28;20052;-47
2022/06/28 08:11:02;;;;;;;4.50;1.48;;;19.60;68.80;;;;;;5040577;28;20060;-52
2022/06/28 08:13:29;;;;;;;6.93;2.20;;;19.60;68.60;;;;;;5044100;28;20064;-49
2022/06/28 08:15:59;;;;;;;2.30;1.75;;;19.60;68.40;;;;;;5042425;28;20053;-47
2022/06/28 08:18:26;;;;;;;3.33;1.77;;;19.70;68.60;;;;;;5042196;28;20420;-49
2022/06/28 08:20:55;;;;;;;4.90;2.10;;;19.70;68.50;;;;;;5043744;28;20049;-51
2022/06/28 08:23:23;;;;;;;4.80;1.90;;;19.80;68.10;;;;;;5042685;28;20061;-52
2022/06/28 08:25:50;;;;;;;104.00;51.70;;;19.80;68.00;;;;;;5043369;28;20059;-48
2022/06/28 08:28:18;;;;;;;21.40;10.48;;;19.80;67.50;;;;;;5041208;28;20056;-51
2022/06/28 08:30:45;;;;;;;8.77;4.00;;;19.90;66.70;;;;;;5037198;28;20432;-46
2022/06/28 08:33:13;;;;;;;7.32;2.25;;;19.90;66.20;;;;;;5037951;28;20049;-49
2022/06/28 08:35:41;;;;;;;5.35;1.92;;;20.00;65.20;;;;;;5039555;28;20041;-45
2022/06/28 08:38:10;;;;;;;5.88;1.70;;;20.00;65.30;;;;;;5043992;28;20056;-47
2022/06/28 08:40:40;;;;;;;4.18;1.65;;;20.10;64.50;;;;;;5043892;28;20052;-49
2022/06/28 08:43:08;;;;;;;3.58;1.42;;;20.10;62.70;;;;;;5043087;28;20057;-46
2022/06/28 08:45:37;;;;;;;4.25;1.50;;;20.10;60.70;;;;;;5041913;28;21419;-45
2022/06/28 08:48:15;;;;;;;4.65;1.20;;;20.20;62.30;;;;;;5043318;28;20403;-48
2022/06/28 08:50:51;;;;;;;6.28;1.67;;;20.20;62.40;;;;;;5043223;28;20424;-50
2022/06/28 08:53:23;;;;;;;3.63;1.50;;;20.20;58.90;;;;;;5041773;28;20057;-51
2022/06/28 08:55:52;;;;;;;4.55;1.60;;;20.30;58.10;;;;;;5043574;28;20056;-48
2022/06/28 08:58:20;;;;;;;7.20;1.55;;;20.30;59.10;;;;;;5043896;28;20060;-46
2022/06/28 09:00:48;;;;;;;3.45;1.23;;;20.30;57.90;;;;;;5040737;28;20049;-46
2022/06/28 09:03:18;;;;;;;5.93;1.00;;;20.40;56.60;;;;;;5044309;28;20072;-47
2022/06/28 09:05:47;;;;;;;3.08;1.10;;;20.40;55.80;;;;;;5044104;28;20052;-46
2022/06/28 09:08:15;;;;;;;2.83;1.20;;;20.40;56.40;;;;;;5044086;28;20504;-55
2022/06/28 09:10:45;;;;;;;3.22;1.23;;;20.50;55.80;;;;;;5044147;28;20496;-52
2022/06/28 09:13:15;;;;;;;2.55;1.00;;;20.50;54.10;;;;;;5043596;28;20408;-49
2022/06/28 09:15:52;;;;;;;4.35;1.02;;;20.50;53.40;;;;;;5044975;28;20905;-50
2022/06/28 09:18:23;;;;;;;2.95;1.10;;;20.60;53.90;;;;;;5044227;28;20064;-47
2022/06/28 09:20:55;;;;;;;2.83;1.08;;;20.60;55.30;;;;;;5044319;28;20076;-49
2022/06/28 09:23:28;;;;;;;5.63;1.23;;;20.70;56.50;;;;;;5044586;28;20056;-48
2022/06/28 09:25:59;;;;;;;3.53;1.42;;;20.80;56.70;;;;;;5043285;28;20056;-53
2022/06/28 09:28:29;;;;;;;2.88;1.08;;;20.90;57.10;;;;;;5042895;28;20614;-45
2022/06/28 09:31:18;;;;;;;6.13;1.08;;;20.90;57.40;;;;;;5041210;28;20049;-48
2022/06/28 09:33:48;;;;;;;6.30;1.05;;;21.00;56.90;;;;;;5044770;28;20504;-51
2022/06/28 09:36:17;;;;;;;1.67;1.00;;;21.10;57.10;;;;;;5044654;28;20068;-51
2022/06/28 09:38:46;;;;;;;3.35;0.98;;;21.10;55.00;;;;;;5044663;28;20065;-48
2022/06/28 09:41:23;;;;;;;4.97;1.30;;;21.10;53.40;;;;;;5043045;28;20048;-46
2022/06/28 09:43:58;;;;;;;4.13;1.10;;;21.10;53.40;;;;;;5044359;28;20064;-44
2022/06/28 09:46:27;;;;;;;3.90;1.15;;;21.20;53.50;;;;;;5041430;28;20408;-47
2022/06/28 09:49:00;;;;;;;3.38;0.70;;;21.30;54.70;;;;;;5041749;28;20057;-46
2022/06/28 09:51:30;;;;;;;2.85;0.80;;;21.30;55.00;;;;;;5041191;28;20049;-49
2022/06/28 09:53:59;;;;;;;2.60;0.80;;;21.40;55.30;;;;;;5042354;28;20485;-53
2022/06/28 09:56:31;;;;;;;3.10;0.80;;;21.40;54.60;;;;;;5042350;28;20061;-53
2022/06/28 09:58:59;;;;;;;3.75;0.80;;;21.50;54.70;;;;;;5040603;28;20056;-53
2022/06/28 10:01:26;;;;;;;3.30;0.90;;;21.50;55.00;;;;;;5040751;28;20045;-49
2022/06/28 10:03:54;;;;;;;3.53;0.70;;;21.60;55.20;;;;;;5040852;28;20500;-52
2022/06/28 10:06:22;;;;;;;2.00;0.95;;;21.60;54.40;;;;;;5043701;28;20053;-53
2022/06/28 10:08:49;;;;;;;1.00;0.68;;;21.70;52.40;;;;;;5041418;28;20057;-51
2022/06/28 10:11:18;;;;;;;3.80;1.00;;;21.70;52.10;;;;;;5041289;28;20057;-48
2022/06/28 10:16:46;;;;;;;6.05;0.73;;;21.70;53.20;;;;;;5041356;28;20056;-43
2022/06/28 10:19:16;;;;;;;3.22;0.80;;;21.80;52.90;;;;;;5040190;28;21316;-50
2022/06/28 10:21:45;;;;;;;3.22;0.70;;;21.90;52.60;;;;;;5039707;28;21666;-47
2022/06/28 10:24:13;;;;;;;1.73;0.85;;;21.90;53.30;;;;;;5038386;28;20057;-47
2022/06/28 10:26:45;;;;;;;2.67;1.00;;;21.90;53.60;;;;;;5042970;28;20056;-48
2022/06/28 10:29:15;;;;;;;5.28;0.70;;;22.00;52.60;;;;;;5040855;28;20127;-55
2022/06/28 10:31:43;;;;;;;1.42;0.70;;;22.00;51.10;;;;;;5040068;28;20060;-47
2022/06/28 10:34:12;;;;;;;1.35;0.70;;;22.10;52.20;;;;;;5039614;28;20053;-48
2022/06/28 10:36:53;;;;;;;2.38;0.90;;;22.10;52.40;;;;;;5040733;28;20045;-51
2022/06/28 10:39:22;;;;;;;1.67;0.60;;;22.20;52.10;;;;;;5039924;28;20053;-48
2022/06/28 10:41:51;;;;;;;2.05;0.60;;;22.20;51.60;;;;;;5033741;28;20049;-49
2022/06/28 10:44:22;;;;;;;0.90;0.60;;;22.30;51.00;;;;;;5035044;28;20531;-52
2022/06/28 10:47:02;;;;;;;3.58;0.80;;;22.30;50.40;;;;;;5034820;28;20059;-49
2022/06/28 10:49:52;;;;;;;2.20;0.52;;;22.30;50.10;;;;;;5034622;28;20060;-51
2022/06/28 10:52:21;;;;;;;0.75;0.55;;;22.30;49.50;;;;;;5038590;28;20060;-50
2022/06/28 10:55:22;;;;;;;2.20;0.73;;;22.40;50.70;;;;;;5038840;28;20053;-49
2022/06/28 10:57:50;;;;;;;1.02;0.40;;;22.40;49.50;;;;;;5041089;28;20064;-49
2022/06/28 11:00:28;;;;;;;3.38;0.57;;;22.50;50.30;;;;;;5035875;28;20423;-54
2022/06/28 11:03:03;;;;;;;1.40;0.60;;;22.60;49.30;;;;;;5034117;28;20413;-48
2022/06/28 11:05:51;;;;;;;1.30;0.70;;;22.60;49.30;;;;;;5037722;28;20061;-55
2022/06/28 11:08:50;;;;;;;1.30;0.68;;;22.70;49.00;;;;;;5044171;28;20086;-53
2022/06/28 11:11:17;;;;;;;1.02;0.50;;;22.70;48.40;;;;;;5041975;28;20049;-49
2022/06/28 11:13:45;;;;;;;1.77;0.50;;;22.80;48.40;;;;;;5039184;28;20060;-50
2022/06/28 11:16:46;;;;;;;2.22;0.75;;;22.90;48.10;;;;;;5041279;28;20059;-54
2022/06/28 11:19:14;;;;;;;2.83;0.88;;;22.90;47.00;;;;;;5039986;28;20076;-53
2022/06/28 11:21:43;;;;;;;2.22;0.68;;;23.00;47.40;;;;;;5039940;28;20053;-53
2022/06/28 11:24:11;;;;;;;2.63;0.70;;;23.00;47.50;;;;;;5040234;28;20079;-52
2022/06/28 11:29:24;;;;;;;1.58;0.60;;;23.10;48.00;;;;;;5050308;28;20063;-51
2022/06/28 11:31:53;;;;;;;2.95;0.75;;;23.20;48.00;;;;;;5039957;28;20049;-47
2022/06/28 11:34:25;;;;;;;1.98;0.90;;;23.30;48.20;;;;;;5043697;28;20566;-45
2022/06/28 11:36:55;;;;;;;2.15;0.80;;;23.30;48.40;;;;;;5045074;28;20511;-47
2022/06/28 11:39:24;;;;;;;0.95;0.50;;;23.40;48.40;;;;;;5041454;28;20420;-49
2022/06/28 11:41:54;;;;;;;1.63;0.60;;;23.50;48.90;;;;;;5036593;28;20049;-50
2022/06/28 11:44:23;;;;;;;1.65;0.60;;;23.60;48.60;;;;;;5035269;28;20060;-47
2022/06/28 11:46:52;;;;;;;1.92;0.95;;;23.60;48.50;;;;;;5037336;28;20053;-51
2022/06/28 11:49:30;;;;;;;2.20;0.60;;;23.70;48.10;;;;;;5038451;28;20103;-47
2022/06/28 11:51:58;;;;;;;5.45;0.80;;;23.70;47.80;;;;;;5039050;28;20484;-50
2022/06/28 11:54:25;;;;;;;1.08;0.77;;;23.80;48.00;;;;;;5038490;28;20052;-50
2022/06/28 11:56:54;;;;;;;2.50;0.90;;;23.80;47.70;;;;;;5045507;28;20460;-50
2022/06/28 11:59:21;;;;;;;1.48;0.73;;;23.80;46.40;;;;;;5044316;28;20404;-48
2022/06/28 12:01:49;;;;;;;0.93;0.60;;;23.80;46.40;;;;;;5042810;28;20060;-45
2022/06/28 12:04:25;;;;;;;4.03;0.80;;;23.90;46.40;;;;;;5038885;28;20052;-47
2022/06/28 12:06:53;;;;;;;3.17;0.70;;;24.00;46.10;;;;;;5047591;28;20060;-49
2022/06/28 12:09:21;;;;;;;1.58;0.60;;;24.00;46.10;;;;;;5044292;28;20496;-51
2022/06/28 12:11:56;;;;;;;2.58;0.70;;;24.00;46.40;;;;;;5044489;28;20052;-51
2022/06/28 12:14:33;;;;;;;1.45;0.60;;;24.00;46.40;;;;;;5045646;28;20504;-51
2022/06/28 12:17:03;;;;;;;1.80;0.70;;;24.00;45.70;;;;;;5042842;28;20048;-48
2022/06/28 12:19:33;;;;;;;2.28;0.77;;;24.10;46.20;;;;;;5044746;28;20049;-51
2022/06/28 12:22:03;;;;;;;2.00;0.70;;;24.10;46.10;;;;;;5040542;28;20052;-53
2022/06/28 12:24:41;;;;;;;1.45;0.73;;;24.20;45.30;;;;;;5041310;28;20064;-53
2022/06/28 12:27:09;;;;;;;2.75;0.80;;;24.20;44.70;;;;;;5043429;28;20420;-46
2022/06/28 12:29:38;;;;;;;1.95;0.70;;;24.30;45.10;;;;;;5041959;28;20056;-52
2022/06/28 12:32:07;;;;;;;1.35;0.80;;;24.30;45.40;;;;;;5042446;28;20075;-51
2022/06/28 12:34:37;;;;;;;2.03;0.73;;;24.40;45.40;;;;;;5043670;28;20170;-51
2022/06/28 12:37:05;;;;;;;1.60;0.80;;;24.40;45.70;;;;;;5041356;28;20496;-48
2022/06/28 12:39:32;;;;;;;2.25;0.85;;;24.40;45.90;;;;;;5043524;28;20060;-51
2022/06/28 12:42:00;;;;;;;3.50;0.88;;;24.50;45.80;;;;;;5042294;28;20045;-53
2022/06/28 12:44:27;;;;;;;2.45;0.90;;;24.50;45.70;;;;;;5042393;28;20057;-50
2022/06/28 12:46:55;;;;;;;0.80;0.73;;;24.50;45.50;;;;;;5041614;28;20055;-48
2022/06/28 12:49:22;;;;;;;2.80;0.85;;;24.60;45.60;;;;;;5042232;28;20056;-48
2022/06/28 12:51:52;;;;;;;2.40;0.90;;;24.70;45.20;;;;;;5042692;28;20436;-50
2022/06/28 12:54:20;;;;;;;1.45;0.57;;;24.70;45.10;;;;;;5042496;28;20052;-55
2022/06/28 12:56:47;;;;;;;0.77;0.57;;;24.70;45.00;;;;;;5042936;28;20524;-51
2022/06/28 12:59:15;;;;;;;1.30;0.70;;;24.80;45.50;;;;;;5042184;28;20416;-50
2022/06/28 13:01:42;;;;;;;2.63;1.10;;;24.80;45.40;;;;;;5042315;28;20057;-52
2022/06/28 13:04:11;;;;;;;1.88;0.77;;;24.80;45.20;;;;;;5041560;28;20064;-54
2022/06/28 13:06:42;;;;;;;0.80;0.70;;;24.90;45.60;;;;;;5042791;28;20057;-49
2022/06/28 13:09:11;;;;;;;1.90;0.88;;;25.00;45.20;;;;;;5043539;28;20057;-51
2022/06/28 13:11:38;;;;;;;2.03;0.70;;;25.00;44.30;;;;;;5041278;28;20053;-49
2022/06/28 13:14:06;;;;;;;2.15;0.73;;;25.00;43.90;;;;;;5043028;28;20060;-52